Welcome to Northern Hawkes Bay. New Zealand.
PWS Header
      nz Flag



Hit Counter


W3C Valid W3C Valid logo


    Wairoa

Select any of the Stations below to visit their websites.










Historic Data from Weather Underground
Select the location of interest below. Wairoa is the default. Please have patience, this Data is slow to load in.
Northern Hawkes Bay Historical Data
Daily Summary for June 3, 2017 Units:  Metric    English   Both
« Previous Day
Next Day »
Daily Weekly Monthly Yearly Custom
  High: Low: Average:
Temperature: 13.7 °C 7.8 °C 10.9 °C
Dew Point: 10.1 °C 5.9 °C 8.3 °C
Humidity: 98% 62% 84%
Wind Speed: 20.9km/h 0.0km/h 6.8km/h
Wind Gust: 30.6km/h - -
Wind- - SW
Pressure: 1011.4 hPa 1008.7 hPa -
Precipitation: 1.8 mm    
Historical Graphs
 
 
Tabular Data for June 3, 2017
Time Temperature Dew Point Pressure Wind Wind Speed Wind Gust Humidity Rainfall Rate (Hourly) solar
00:02 13.7 °C 7.9 °C 1009.4 hPa SSE 14.8 km/h 30.6 km/h 68% 0.0 mm 35 W/m2
00:07 13.7 °C 7.7 °C 1009.4 hPa SSE 8.7 km/h 30.6 km/h 67% 0.0 mm 30 W/m2
00:12 13.7 °C 7.9 °C 1009.4 hPa South 13.4 km/h 27.0 km/h 68% 0.0 mm 20 W/m2
00:17 13.6 °C 7.6 °C 1009.4 hPa South 17.2 km/h 24.5 km/h 67% 0.0 mm 18 W/m2
00:22 13.6 °C 7.4 °C 1009.4 hPa South 8.7 km/h 24.5 km/h 66% 0.0 mm 12 W/m2
00:27 13.6 °C 7.8 °C 1009.4 hPa SSE 9.7 km/h 21.9 km/h 68% 0.0 mm 7 W/m2
00:32 13.5 °C 7.3 °C 1009.7 hPa SSE 11.1 km/h 18.3 km/h 66% 0.0 mm 5 W/m2
00:37 13.5 °C 7.5 °C 1009.4 hPa SSE 8.7 km/h 19.5 km/h 67% 0.0 mm 4 W/m2
00:42 13.4 °C 7.6 °C 1009.4 hPa SSE 7.2 km/h 19.5 km/h 68% 0.0 mm 2 W/m2
00:47 13.4 °C 7.8 °C 1009.4 hPa South 9.7 km/h 19.5 km/h 69% 0.0 mm 2 W/m2
00:52 13.4 °C 7.8 °C 1009.4 hPa South 9.7 km/h 19.5 km/h 69% 0.0 mm 0 W/m2
00:57 13.4 °C 7.8 °C 1009.4 hPa South 12.2 km/h 18.3 km/h 69% 0.0 mm 0 W/m2
01:02 13.4 °C 7.6 °C 1009.4 hPa South 14.8 km/h 25.6 km/h 68% 0.0 mm 0 W/m2
01:07 13.4 °C 7.6 °C 1009.4 hPa SSE 8.7 km/h 25.6 km/h 68% 0.0 mm 0 W/m2
01:12 13.3 °C 7.1 °C 1009.4 hPa South 7.2 km/h 25.6 km/h 66% 0.0 mm 0 W/m2
01:17 13.2 °C 7.0 °C 1009.4 hPa SSE 6.1 km/h 19.5 km/h 66% 0.0 mm 0 W/m2
01:22 13.1 °C 6.9 °C 1009.4 hPa SSE 8.7 km/h 19.5 km/h 66% 0.0 mm 0 W/m2
01:27 13.1 °C 6.9 °C 1009.4 hPa South 9.7 km/h 19.5 km/h 66% 0.0 mm 0 W/m2
01:32 13.0 °C 6.6 °C 1009.4 hPa South 11.1 km/h 18.3 km/h 65% 0.0 mm 0 W/m2
01:37 13.0 °C 5.9 °C 1009.7 hPa South 12.2 km/h 18.3 km/h 62% 0.0 mm 0 W/m2
01:42 13.0 °C 6.1 °C 1009.7 hPa South 8.7 km/h 17.2 km/h 63% 0.0 mm 0 W/m2
01:47 13.0 °C 6.3 °C 1009.4 hPa South 6.1 km/h 17.2 km/h 64% 0.0 mm 0 W/m2
01:52 13.1 °C 6.4 °C 1009.7 hPa South 7.2 km/h 15.8 km/h 64% 0.0 mm 0 W/m2
01:57 13.1 °C 6.7 °C 1009.7 hPa South 11.1 km/h 18.3 km/h 65% 0.0 mm 0 W/m2
02:02 13.3 °C 7.1 °C 1009.7 hPa South 7.2 km/h 18.3 km/h 66% 0.0 mm 0 W/m2
02:07 13.3 °C 7.1 °C 1009.7 hPa South 7.2 km/h 18.3 km/h 66% 0.0 mm 0 W/m2
02:12 13.1 °C 7.1 °C 1009.7 hPa South 7.2 km/h 18.3 km/h 67% 0.0 mm 0 W/m2
02:17 13.0 °C 7.0 °C 1009.7 hPa South 7.2 km/h 13.4 km/h 67% 0.0 mm 0 W/m2
02:22 12.9 °C 7.3 °C 1009.7 hPa South 7.2 km/h 12.2 km/h 69% 0.0 mm 0 W/m2
02:27 12.9 °C 7.8 °C 1009.7 hPa South 5.0 km/h 12.2 km/h 71% 0.0 mm 0 W/m2
02:32 12.8 °C 7.9 °C 1009.7 hPa South 6.1 km/h 12.2 km/h 72% 0.0 mm 0 W/m2
02:37 12.9 °C 8.2 °C 1009.7 hPa South 6.1 km/h 11.1 km/h 73% 0.0 mm 0 W/m2
02:42 12.9 °C 8.4 °C 1009.7 hPa SE 5.0 km/h 11.1 km/h 74% 0.0 mm 0 W/m2
02:47 12.7 °C 8.4 °C 1009.7 hPa SE 5.0 km/h 8.7 km/h 75% 0.0 mm 0 W/m2
02:52 12.8 °C 8.5 °C 1009.7 hPa SSE 8.7 km/h 17.2 km/h 75% 0.0 mm 0 W/m2
02:57 12.7 °C 8.2 °C 1009.7 hPa SSE 6.1 km/h 17.2 km/h 74% 0.0 mm 0 W/m2
03:02 12.8 °C 8.1 °C 1009.7 hPa SSE 2.6 km/h 13.4 km/h 73% 0.0 mm 0 W/m2
03:07 12.8 °C 8.3 °C 1009.7 hPa SSE 5.0 km/h 9.7 km/h 74% 0.0 mm 0 W/m2
03:12 12.8 °C 8.1 °C 1009.7 hPa South 6.1 km/h 12.2 km/h 73% 0.0 mm 0 W/m2
03:17 12.9 °C 8.4 °C 1009.7 hPa South 7.2 km/h 13.4 km/h 74% 0.0 mm 0 W/m2
03:22 12.6 °C 8.3 °C 1009.7 hPa SSE 3.5 km/h 14.8 km/h 75% 0.0 mm 0 W/m2
03:27 12.2 °C 8.3 °C 1009.7 hPa SE 1.1 km/h 14.8 km/h 77% 0.0 mm 0 W/m2
03:32 12.2 °C 8.7 °C 1009.7 hPa SSE 13.4 km/h 19.5 km/h 79% 0.0 mm 0 W/m2
03:37 12.7 °C 8.6 °C 1009.7 hPa South 14.8 km/h 20.9 km/h 76% 0.0 mm 0 W/m2
03:42 12.9 °C 8.4 °C 1009.7 hPa South 11.1 km/h 20.9 km/h 74% 0.0 mm 0 W/m2
03:47 13.0 °C 8.7 °C 1009.7 hPa South 11.1 km/h 20.9 km/h 75% 0.0 mm 0 W/m2
03:52 13.0 °C 8.7 °C 1009.7 hPa South 11.1 km/h 18.3 km/h 75% 0.0 mm 0 W/m2
03:57 13.0 °C 9.1 °C 1009.7 hPa South 11.1 km/h 24.5 km/h 77% 0.0 mm 0 W/m2
04:02 12.9 °C 8.9 °C 1009.7 hPa SSW 20.9 km/h 28.0 km/h 77% 0.0 mm 0 W/m2
04:07 12.9 °C 9.2 °C 1009.7 hPa SSW 14.8 km/h 28.0 km/h 78% 0.0 mm 0 W/m2
04:12 12.7 °C 9.2 °C 1009.7 hPa SW 15.8 km/h 28.0 km/h 79% 0.0 mm 0 W/m2
04:17 12.3 °C 9.1 °C 1009.7 hPa SSW 12.2 km/h 25.6 km/h 81% 0.0 mm 0 W/m2
04:22 12.1 °C 9.1 °C 1009.7 hPa SSW 15.8 km/h 24.5 km/h 82% 0.0 mm 0 W/m2
04:27 12.3 °C 9.3 °C 1009.7 hPa SSW 11.1 km/h 25.6 km/h 82% 0.0 mm 0 W/m2
04:32 12.1 °C 9.3 °C 1010.0 hPa SSW 13.4 km/h 25.6 km/h 83% 0.0 mm 0 W/m2
04:37 12.0 °C 9.4 °C 1010.0 hPa SSW 15.8 km/h 24.5 km/h 84% 0.0 mm 0 W/m2
04:42 11.8 °C 9.4 °C 1009.7 hPa SSW 9.7 km/h 25.6 km/h 85% 0.0 mm 0 W/m2
04:47 11.4 °C 9.2 °C 1010.0 hPa SW 8.7 km/h 25.6 km/h 86% 0.5 mm 0 W/m2
04:52 11.3 °C 9.4 °C 1009.7 hPa SW 18.3 km/h 23.3 km/h 88% 0.5 mm 0 W/m2
04:57 11.5 °C 9.6 °C 1009.7 hPa SW 7.2 km/h 21.9 km/h 88% 0.5 mm 0 W/m2
05:02 11.6 °C 9.7 °C 1009.7 hPa SW 14.8 km/h 27.0 km/h 88% 0.5 mm 0 W/m2
05:07 11.6 °C 9.7 °C 1009.7 hPa SSW 13.4 km/h 27.0 km/h 88% 0.5 mm 0 W/m2
05:12 11.4 °C 9.3 °C 1009.7 hPa SSW 13.4 km/h 27.0 km/h 87% 0.5 mm 0 W/m2
05:17 11.2 °C 9.1 °C 1010.0 hPa SSW 15.8 km/h 25.6 km/h 87% 0.5 mm 0 W/m2
05:22 11.1 °C 9.0 °C 1010.0 hPa SSW 11.1 km/h 25.6 km/h 87% 0.5 mm 0 W/m2
05:27 11.2 °C 9.3 °C 1009.7 hPa SSW 9.7 km/h 25.6 km/h 88% 0.5 mm 0 W/m2
05:32 11.1 °C 9.3 °C 1009.7 hPa SSW 12.2 km/h 24.5 km/h 89% 0.5 mm 0 W/m2
05:37 11.0 °C 9.4 °C 1010.0 hPa SSW 13.4 km/h 24.5 km/h 90% 1.0 mm 0 W/m2
05:42 10.8 °C 9.4 °C 1009.7 hPa SSW 8.7 km/h 23.3 km/h 91% 1.3 mm 0 W/m2
05:47 10.8 °C 9.6 °C 1010.0 hPa SSW 17.2 km/h 27.0 km/h 92% 1.3 mm 0 W/m2
05:52 10.7 °C 9.4 °C 1009.7 hPa SSW 9.7 km/h 27.0 km/h 92% 1.3 mm 0 W/m2
05:57 10.5 °C 9.4 °C 1009.7 hPa SW 8.7 km/h 23.3 km/h 93% 1.5 mm 0 W/m2
06:02 10.5 °C 9.4 °C 1009.7 hPa SW 5.0 km/h 17.2 km/h 93% 1.5 mm 0 W/m2
06:07 10.5 °C 9.4 °C 1009.7 hPa WSW 9.7 km/h 14.8 km/h 93% 1.5 mm 0 W/m2
06:12 10.5 °C 9.6 °C 1009.7 hPa WSW 9.7 km/h 14.8 km/h 94% 1.5 mm 0 W/m2
06:16 10.4 °C 9.5 °C 1009.7 hPa SW 9.7 km/h 17.2 km/h 94% 2.0 mm 0 W/m2
06:22 10.7 °C 9.9 °C 1009.7 hPa SW 13.4 km/h 21.9 km/h 95% 2.3 mm 0 W/m2
06:27 10.9 °C 10.1 °C 1009.7 hPa SSW 12.2 km/h 21.9 km/h 95% 2.3 mm 0 W/m2
06:32 11.0 °C 9.9 °C 1009.4 hPa SW 11.1 km/h 23.3 km/h 93% 2.0 mm 0 W/m2
06:37 11.1 °C 10.0 °C 1009.4 hPa SSW 17.2 km/h 25.6 km/h 93% 2.0 mm 0 W/m2
06:41 10.9 °C 9.8 °C 1009.4 hPa SSW 12.2 km/h 25.6 km/h 93% 1.8 mm 0 W/m2
06:47 10.9 °C 9.7 °C 1009.4 hPa SSW 14.8 km/h 25.6 km/h 92% 1.3 mm 0 W/m2
06:52 10.8 °C 9.6 °C 1009.4 hPa SSW 11.1 km/h 21.9 km/h 92% 1.3 mm 0 W/m2
06:57 10.8 °C 9.4 °C 1009.4 hPa SSW 9.7 km/h 20.9 km/h 91% 1.0 mm 0 W/m2
07:01 10.9 °C 9.5 °C 1009.7 hPa SSW 9.7 km/h 20.9 km/h 91% 1.0 mm 0 W/m2
07:07 11.0 °C 9.3 °C 1009.7 hPa SSW 11.1 km/h 20.9 km/h 89% 1.0 mm 0 W/m2
07:12 11.0 °C 8.9 °C 1009.4 hPa SW 11.1 km/h 18.3 km/h 87% 1.0 mm 0 W/m2
07:17 11.1 °C 9.0 °C 1009.4 hPa SW 8.7 km/h 18.3 km/h 87% 0.3 mm 0 W/m2
07:22 11.1 °C 8.8 °C 1009.4 hPa SW 8.7 km/h 14.8 km/h 86% 0.0 mm 0 W/m2
07:27 11.2 °C 8.9 °C 1009.4 hPa SW 7.2 km/h 14.8 km/h 86% 0.0 mm 0 W/m2
07:32 11.2 °C 8.8 °C 1009.4 hPa SW 6.1 km/h 13.4 km/h 85% 0.0 mm 0 W/m2
07:37 11.2 °C 8.8 °C 1009.4 hPa SW 5.0 km/h 14.8 km/h 85% 0.0 mm 0 W/m2
07:42 11.2 °C 8.8 °C 1009.4 hPa WSW 5.0 km/h 14.8 km/h 85% 0.0 mm 0 W/m2
07:47 11.1 °C 8.7 °C 1009.4 hPa SW 5.0 km/h 9.7 km/h 85% 0.0 mm 0 W/m2
07:52 11.1 °C 8.7 °C 1009.4 hPa WSW 9.7 km/h 20.9 km/h 85% 0.0 mm 0 W/m2
07:57 11.0 °C 8.8 °C 1009.4 hPa WSW 5.0 km/h 20.9 km/h 86% 0.0 mm 0 W/m2
08:02 10.8 °C 8.9 °C 1009.4 hPa West 5.0 km/h 13.4 km/h 88% 0.0 mm 0 W/m2
08:07 10.7 °C 8.9 °C 1009.4 hPa West 3.5 km/h 11.1 km/h 89% 0.0 mm 0 W/m2
08:12 10.6 °C 9.1 °C 1009.4 hPa West 8.7 km/h 12.2 km/h 90% 0.0 mm 0 W/m2
08:17 10.6 °C 9.2 °C 1009.4 hPa West 5.0 km/h 14.8 km/h 91% 0.0 mm 0 W/m2
08:22 10.6 °C 9.3 °C 1009.4 hPa West 7.2 km/h 15.8 km/h 92% 0.0 mm 0 W/m2
08:27 10.6 °C 9.5 °C 1009.0 hPa WSW 8.7 km/h 18.3 km/h 93% 0.0 mm 0 W/m2
08:32 10.5 °C 9.4 °C 1009.0 hPa SW 9.7 km/h 19.5 km/h 93% 0.0 mm 0 W/m2
08:37 10.5 °C 9.4 °C 1009.0 hPa WSW 11.1 km/h 19.5 km/h 93% 0.0 mm 0 W/m2
08:42 10.5 °C 9.4 °C 1009.0 hPa WSW 2.6 km/h 17.2 km/h 93% 0.5 mm 0 W/m2
08:47 10.4 °C 9.5 °C 1009.0 hPa WSW 5.0 km/h 13.4 km/h 94% 0.5 mm 0 W/m2
08:52 10.4 °C 9.5 °C 1009.4 hPa West 6.1 km/h 13.4 km/h 94% 1.0 mm 0 W/m2
08:57 10.5 °C 9.6 °C 1009.0 hPa WSW 3.5 km/h 17.2 km/h 94% 1.0 mm 0 W/m2
09:02 10.5 °C 9.6 °C 1009.4 hPa WSW 3.5 km/h 17.2 km/h 94% 1.0 mm 0 W/m2
09:07 10.5 °C 9.6 °C 1009.4 hPa West 3.5 km/h 14.8 km/h 94% 1.3 mm 0 W/m2
09:17 10.4 °C 9.5 °C 1009.0 hPa NNW 5.0 km/h 7.2 km/h 94% 1.3 mm 0 W/m2
09:22 10.2 °C 9.3 °C 1009.4 hPa NNE 3.5 km/h 7.2 km/h 94% 1.3 mm 0 W/m2
09:27 10.0 °C 9.1 °C 1009.0 hPa NNE 7.2 km/h 9.7 km/h 94% 1.3 mm 0 W/m2
09:32 9.8 °C 9.1 °C 1009.4 hPa North 5.0 km/h 9.7 km/h 95% 1.3 mm 0 W/m2
09:37 9.8 °C 9.1 °C 1009.0 hPa NW 1.1 km/h 9.7 km/h 95% 1.3 mm 0 W/m2
09:42 9.8 °C 9.1 °C 1009.0 hPa WNW 3.5 km/h 8.7 km/h 95% 0.5 mm 0 W/m2
09:47 9.9 °C 9.3 °C 1009.0 hPa NW 5.0 km/h 7.2 km/h 96% 0.3 mm 0 W/m2
09:52 10.0 °C 9.2 °C 1009.0 hPa WNW 3.5 km/h 8.7 km/h 95% 0.3 mm 0 W/m2
09:57 10.0 °C 9.2 °C 1009.0 hPa WNW 2.6 km/h 9.7 km/h 95% 0.3 mm 0 W/m2
10:03 9.9 °C 9.3 °C 1009.0 hPa West 2.6 km/h 9.7 km/h 96% 0.3 mm 0 W/m2
10:08 10.0 °C 9.2 °C 1009.0 hPa WNW 5.0 km/h 11.1 km/h 95% 0.0 mm 0 W/m2
10:13 10.1 °C 9.3 °C 1009.0 hPa WNW 3.5 km/h 11.1 km/h 95% 0.0 mm 0 W/m2
10:18 10.1 °C 9.3 °C 1009.0 hPa West 8.7 km/h 14.8 km/h 95% 0.0 mm 0 W/m2
10:23 10.3 °C 9.6 °C 1009.4 hPa West 7.2 km/h 14.8 km/h 95% 0.0 mm 0 W/m2
10:28 10.3 °C 9.4 °C 1009.0 hPa WNW 5.0 km/h 13.4 km/h 94% 0.0 mm 0 W/m2
10:33 10.3 °C 9.4 °C 1009.0 hPa West 6.1 km/h 13.4 km/h 94% 0.0 mm 0 W/m2
10:38 10.3 °C 9.2 °C 1009.0 hPa WSW 3.5 km/h 13.4 km/h 93% 0.0 mm 0 W/m2
10:43 10.3 °C 9.2 °C 1009.4 hPa West 8.7 km/h 17.2 km/h 93% 0.0 mm 0 W/m2
10:48 10.3 °C 9.1 °C 1009.0 hPa West 7.2 km/h 17.2 km/h 92% 0.0 mm 0 W/m2
10:53 10.3 °C 8.9 °C 1009.0 hPa WSW 6.1 km/h 15.8 km/h 91% 0.0 mm 0 W/m2
10:58 10.3 °C 8.7 °C 1009.0 hPa WSW 8.7 km/h 15.8 km/h 90% 0.0 mm 0 W/m2
11:03 10.2 °C 8.6 °C 1009.0 hPa WSW 8.7 km/h 14.8 km/h 90% 0.0 mm 0 W/m2
11:08 10.2 °C 8.6 °C 1009.0 hPa West 5.0 km/h 14.8 km/h 90% 0.0 mm 0 W/m2
11:13 10.1 °C 8.4 °C 1009.0 hPa West 5.0 km/h 14.8 km/h 89% 0.0 mm 0 W/m2
11:18 10.0 °C 8.3 °C 1009.0 hPa West 7.2 km/h 13.4 km/h 89% 0.0 mm 0 W/m2
11:23 10.0 °C 8.3 °C 1009.0 hPa West 3.5 km/h 13.4 km/h 89% 0.0 mm 0 W/m2
11:28 10.0 °C 8.3 °C 1009.0 hPa WSW 2.6 km/h 12.2 km/h 89% 0.0 mm 0 W/m2
11:33 9.9 °C 8.3 °C 1009.4 hPa West 2.6 km/h 8.7 km/h 90% 0.0 mm 0 W/m2
11:38 9.8 °C 8.2 °C 1008.7 hPa NW 2.6 km/h 8.7 km/h 90% 0.0 mm 0 W/m2
11:43 9.5 °C 7.8 °C 1008.7 hPa NW 1.1 km/h 7.2 km/h 89% 0.0 mm 0 W/m2
11:48 9.1 °C 7.4 °C 1009.0 hPa NNW 2.6 km/h 6.1 km/h 89% 0.0 mm 0 W/m2
11:53 8.9 °C 7.5 °C 1008.7 hPa NW 2.6 km/h 6.1 km/h 91% 0.0 mm 0 W/m2
11:58 8.7 °C 7.3 °C 1008.7 hPa NW 1.1 km/h 6.1 km/h 91% 0.0 mm 0 W/m2
12:03 8.5 °C 7.3 °C 1008.7 hPa NNW 2.6 km/h 6.1 km/h 92% 0.0 mm 0 W/m2
12:08 8.2 °C 7.0 °C 1008.7 hPa North 1.1 km/h 3.5 km/h 92% 0.0 mm 0 W/m2
12:13 8.1 °C 6.9 °C 1009.0 hPa North 1.1 km/h 3.5 km/h 92% 0.0 mm 0 W/m2
12:18 8.0 °C 6.9 °C 1008.7 hPa North 2.6 km/h 3.5 km/h 93% 0.0 mm 0 W/m2
12:23 7.9 °C 6.8 °C 1008.7 hPa NNE 1.1 km/h 3.5 km/h 93% 0.0 mm 0 W/m2
12:28 7.8 °C 6.9 °C 1008.7 hPa NNE 1.1 km/h 3.5 km/h 94% 0.0 mm 0 W/m2
12:33 7.8 °C 6.9 °C 1008.7 hPa NNE 2.6 km/h 6.1 km/h 94% 0.0 mm 0 W/m2
12:38 7.8 °C 6.9 °C 1008.7 hPa NNE 5.0 km/h 7.2 km/h 94% 0.0 mm 0 W/m2
12:43 7.8 °C 7.1 °C 1008.7 hPa North 1.1 km/h 7.2 km/h 95% 0.0 mm 0 W/m2
12:48 7.8 °C 7.1 °C 1008.7 hPa NNW 2.6 km/h 7.2 km/h 95% 0.0 mm 0 W/m2
12:53 7.8 °C 7.2 °C 1009.0 hPa Calm   5.0 km/h 96% 0.0 mm 0 W/m2
12:58 7.9 °C 7.3 °C 1009.0 hPa NNW 2.6 km/h 5.0 km/h 96% 0.0 mm 0 W/m2
13:03 7.9 °C 7.3 °C 1009.0 hPa NNW 2.6 km/h 5.0 km/h 96% 0.0 mm 0 W/m2
13:08 7.8 °C 7.2 °C 1009.0 hPa Calm   5.0 km/h 96% 0.0 mm 0 W/m2
13:25 8.0 °C 7.4 °C 1009.0 hPa North 2.6 km/h 5.0 km/h 96% 0.0 mm 0 W/m2
13:30 8.1 °C 7.5 °C 1009.4 hPa NNE 2.6 km/h 5.0 km/h 96% 0.0 mm 0 W/m2
13:35 8.1 °C 7.5 °C 1009.4 hPa NE 1.1 km/h 5.0 km/h 96% 0.0 mm 0 W/m2
13:40 8.2 °C 7.8 °C 1009.0 hPa ENE 1.1 km/h 3.5 km/h 97% 0.0 mm 0 W/m2
13:45 8.3 °C 7.8 °C 1009.4 hPa NE 5.0 km/h 7.2 km/h 97% 0.0 mm 0 W/m2
13:50 8.4 °C 7.9 °C 1009.0 hPa NE 1.1 km/h 7.2 km/h 97% 0.0 mm 0 W/m2
13:55 8.3 °C 7.8 °C 1009.4 hPa NNE 5.0 km/h 8.7 km/h 97% 0.0 mm 0 W/m2
14:00 8.4 °C 7.9 °C 1009.4 hPa North 2.6 km/h 8.7 km/h 97% 0.0 mm 0 W/m2
14:05 8.5 °C 8.1 °C 1009.4 hPa North 2.6 km/h 8.7 km/h 97% 0.0 mm 0 W/m2
14:10 8.5 °C 8.1 °C 1009.4 hPa Calm   6.1 km/h 97% 0.0 mm 0 W/m2
14:15 8.6 °C 8.2 °C 1009.4 hPa Calm   6.1 km/h 97% 0.0 mm 0 W/m2
14:20 8.6 °C 8.2 °C 1009.7 hPa NNW 3.5 km/h 6.1 km/h 97% 0.0 mm 0 W/m2
14:26 8.8 °C 8.3 °C 1009.7 hPa NNW 2.6 km/h 5.0 km/h 97% 0.0 mm 0 W/m2
14:31 8.8 °C 8.5 °C 1009.7 hPa NNW 3.5 km/h 7.2 km/h 98% 0.0 mm 0 W/m2
14:36 9.0 °C 8.6 °C 1009.4 hPa NNW 1.1 km/h 7.2 km/h 97% 0.0 mm 0 W/m2
14:41 9.0 °C 8.6 °C 1009.7 hPa North 3.5 km/h 6.1 km/h 97% 0.0 mm 0 W/m2
14:46 9.0 °C 8.6 °C 1010.0 hPa NNW 2.6 km/h 6.1 km/h 97% 0.0 mm 0 W/m2
14:51 9.0 °C 8.6 °C 1009.7 hPa NW 2.6 km/h 9.7 km/h 97% 0.0 mm 0 W/m2
14:56 9.0 °C 8.6 °C 1009.7 hPa NW 1.1 km/h 9.7 km/h 97% 0.0 mm 0 W/m2
15:01 9.0 °C 8.6 °C 1009.7 hPa NW 3.5 km/h 5.0 km/h 97% 0.0 mm 0 W/m2
15:06 8.9 °C 8.6 °C 1009.7 hPa NW 2.6 km/h 6.1 km/h 98% 0.0 mm 0 W/m2
15:11 9.0 °C 8.6 °C 1009.7 hPa NW 1.1 km/h 6.1 km/h 97% 0.0 mm 0 W/m2
15:16 9.0 °C 8.6 °C 1010.0 hPa NNW 1.1 km/h 5.0 km/h 97% 0.0 mm 0 W/m2
15:21 8.8 °C 8.5 °C 1010.0 hPa NNW 1.1 km/h 5.0 km/h 98% 0.0 mm 0 W/m2
15:26 8.8 °C 8.5 °C 1010.0 hPa NNW 3.5 km/h 6.1 km/h 98% 0.0 mm 1 W/m2
15:31 8.8 °C 8.5 °C 1010.0 hPa NNW 1.1 km/h 6.1 km/h 98% 0.0 mm 2 W/m2
15:36 8.8 °C 8.5 °C 1010.0 hPa Calm   6.1 km/h 98% 0.0 mm 3 W/m2
15:41 8.8 °C 8.5 °C 1010.4 hPa NW 1.1 km/h 3.5 km/h 98% 0.0 mm 4 W/m2
15:46 8.9 °C 8.4 °C 1010.0 hPa NNW 2.6 km/h 5.0 km/h 97% 0.0 mm 7 W/m2
15:51 9.0 °C 8.6 °C 1010.4 hPa NW 2.6 km/h 5.0 km/h 97% 0.3 mm 7 W/m2
15:56 9.1 °C 8.7 °C 1010.4 hPa WNW 1.1 km/h 5.0 km/h 97% 0.3 mm 11 W/m2
16:01 9.2 °C 8.8 °C 1010.4 hPa West 2.6 km/h 6.1 km/h 97% 0.3 mm 9 W/m2
16:06 9.3 °C 8.8 °C 1010.4 hPa WNW 3.5 km/h 8.7 km/h 97% 0.3 mm 16 W/m2
16:11 9.3 °C 8.7 °C 1010.4 hPa NW 2.6 km/h 8.7 km/h 96% 0.3 mm 22 W/m2
16:16 9.3 °C 8.7 °C 1010.4 hPa Calm   7.2 km/h 96% 0.3 mm 26 W/m2
16:21 9.3 °C 8.7 °C 1010.4 hPa NNW 2.6 km/h 7.2 km/h 96% 0.3 mm 32 W/m2
16:26 9.3 °C 8.7 °C 1010.7 hPa NNW 1.1 km/h 5.0 km/h 96% 0.3 mm 52 W/m2
16:31 9.4 °C 8.8 °C 1010.4 hPa NNW 3.5 km/h 6.1 km/h 96% 0.3 mm 42 W/m2
16:36 9.4 °C 8.7 °C 1010.7 hPa NNW 3.5 km/h 6.1 km/h 95% 0.3 mm 68 W/m2
16:41 9.5 °C 8.7 °C 1010.7 hPa NNW 2.6 km/h 6.1 km/h 95% 0.3 mm 105 W/m2
16:46 9.9 °C 9.1 °C 1010.7 hPa NNW 3.5 km/h 5.0 km/h 95% 0.3 mm 139 W/m2
16:51 10.4 °C 9.5 °C 1010.7 hPa NW 3.5 km/h 5.0 km/h 94% 0.0 mm 163 W/m2
16:56 10.7 °C 9.8 °C 1010.7 hPa NW 3.5 km/h 6.1 km/h 94% 0.0 mm 113 W/m2
17:01 10.7 °C 9.4 °C 1010.7 hPa NW 3.5 km/h 9.7 km/h 92% 0.0 mm 98 W/m2
17:06 10.7 °C 9.3 °C 1010.7 hPa WNW 5.0 km/h 9.7 km/h 91% 0.0 mm 100 W/m2
17:11 10.7 °C 9.3 °C 1010.7 hPa West 6.1 km/h 14.8 km/h 91% 0.0 mm 88 W/m2
17:16 10.6 °C 9.1 °C 1011.1 hPa WSW 7.2 km/h 14.8 km/h 90% 0.0 mm 89 W/m2
17:21 10.6 °C 8.7 °C 1011.1 hPa WSW 7.2 km/h 14.8 km/h 88% 0.0 mm 87 W/m2
17:26 10.5 °C 8.4 °C 1011.1 hPa West 6.1 km/h 15.8 km/h 87% 0.0 mm 89 W/m2
17:31 10.4 °C 8.3 °C 1011.1 hPa WSW 14.8 km/h 20.9 km/h 87% 0.0 mm 85 W/m2
17:36 10.3 °C 8.2 °C 1011.1 hPa SW 9.7 km/h 20.9 km/h 87% 0.0 mm 82 W/m2
17:41 10.3 °C 8.2 °C 1011.1 hPa WSW 9.7 km/h 20.9 km/h 87% 0.0 mm 86 W/m2
17:46 10.2 °C 8.1 °C 1011.1 hPa WSW 5.0 km/h 15.8 km/h 87% 0.0 mm 82 W/m2
17:51 10.2 °C 8.3 °C 1011.1 hPa WSW 11.1 km/h 15.8 km/h 88% 0.0 mm 83 W/m2
17:56 10.1 °C 8.2 °C 1011.1 hPa WSW 5.0 km/h 13.4 km/h 88% 0.0 mm 75 W/m2
18:01 10.2 °C 8.3 °C 1011.1 hPa West 8.7 km/h 13.4 km/h 88% 0.0 mm 86 W/m2
18:06 10.2 °C 8.3 °C 1011.1 hPa West 6.1 km/h 14.8 km/h 88% 0.0 mm 77 W/m2
18:11 10.2 °C 8.3 °C 1011.4 hPa West 3.5 km/h 14.8 km/h 88% 0.0 mm 93 W/m2
18:16 10.3 °C 8.4 °C 1011.4 hPa WNW 7.2 km/h 11.1 km/h 88% 0.0 mm 94 W/m2
18:21 10.3 °C 8.4 °C 1011.1 hPa WNW 5.0 km/h 11.1 km/h 88% 0.3 mm 89 W/m2
18:26 10.4 °C 8.3 °C 1011.4 hPa WNW 7.2 km/h 11.1 km/h 87% 0.3 mm 83 W/m2
18:31 10.5 °C 8.3 °C 1011.4 hPa WNW 3.5 km/h 11.1 km/h 86% 0.3 mm 87 W/m2
18:36 10.6 °C 8.6 °C 1011.4 hPa NW 3.5 km/h 11.1 km/h 87% 0.3 mm 103 W/m2
18:41 10.7 °C 8.6 °C 1011.1 hPa NNW 1.1 km/h 8.7 km/h 87% 0.3 mm 106 W/m2
18:46 10.9 °C 8.7 °C 1011.4 hPa NW 6.1 km/h 8.7 km/h 86% 0.3 mm 124 W/m2
18:51 11.1 °C 8.5 °C 1011.4 hPa WNW 3.5 km/h 7.2 km/h 84% 0.3 mm 172 W/m2
18:56 11.6 °C 9.0 °C 1011.4 hPa NW 2.6 km/h 7.2 km/h 84% 0.3 mm 155 W/m2
19:01 11.8 °C 9.0 °C 1011.4 hPa NW 2.6 km/h 7.2 km/h 83% 0.3 mm 105 W/m2
19:06 11.7 °C 8.7 °C 1011.4 hPa NW 2.6 km/h 9.7 km/h 82% 0.3 mm 129 W/m2
19:11 11.7 °C 8.7 °C 1011.4 hPa NW 2.6 km/h 9.7 km/h 82% 0.3 mm 118 W/m2
19:16 11.6 °C 8.3 °C 1011.4 hPa NW 2.6 km/h 8.7 km/h 80% 0.3 mm 146 W/m2
19:21 12.0 °C 8.7 °C 1011.4 hPa WNW 2.6 km/h 8.7 km/h 80% 0.0 mm 176 W/m2
19:26 12.1 °C 8.4 °C 1011.4 hPa SW 5.0 km/h 11.1 km/h 78% 0.0 mm 131 W/m2
19:31 11.9 °C 8.2 °C 1011.4 hPa WSW 7.2 km/h 12.2 km/h 78% 0.0 mm 115 W/m2
19:36 11.6 °C 8.1 °C 1011.1 hPa WSW 6.1 km/h 13.4 km/h 79% 0.0 mm 97 W/m2
19:41 11.3 °C 8.0 °C 1011.1 hPa West 3.5 km/h 13.4 km/h 80% 0.0 mm 122 W/m2
19:46 11.3 °C 8.2 °C 1011.1 hPa WNW 3.5 km/h 9.7 km/h 81% 0.0 mm 89 W/m2
19:51 11.4 °C 8.3 °C 1011.1 hPa WNW 3.5 km/h 8.7 km/h 81% 0.0 mm 92 W/m2
19:56 11.4 °C 8.3 °C 1011.1 hPa WNW 3.5 km/h 7.2 km/h 81% 0.0 mm 71 W/m2
20:01 11.4 °C 8.3 °C 1011.1 hPa WSW 7.2 km/h 8.7 km/h 81% 0.0 mm 62 W/m2
20:06 11.2 °C 7.9 °C 1011.1 hPa WSW 3.5 km/h 8.7 km/h 80% 0.0 mm 62 W/m2
20:11 11.2 °C 7.9 °C 1011.1 hPa West 2.6 km/h 8.7 km/h 80% 0.0 mm 70 W/m2
20:16 11.1 °C 7.8 °C 1011.1 hPa WSW 6.1 km/h 9.7 km/h 80% 0.0 mm 84 W/m2
20:21 11.2 °C 7.7 °C 1010.7 hPa West 5.0 km/h 12.2 km/h 79% 0.0 mm 103 W/m2
20:26 11.4 °C 7.7 °C 1010.7 hPa West 3.5 km/h 13.4 km/h 78% 0.0 mm 113 W/m2
20:31 11.5 °C 7.6 °C 1010.7 hPa West 7.2 km/h 13.4 km/h 77% 0.0 mm 91 W/m2
20:36 11.6 °C 7.7 °C 1010.7 hPa West 6.1 km/h 12.2 km/h 77% 0.0 mm 91 W/m2
20:41 11.5 °C 7.4 °C 1010.7 hPa WSW 5.0 km/h 13.4 km/h 76% 0.0 mm 113 W/m2
20:46 11.6 °C 7.5 °C 1010.7 hPa WSW 8.7 km/h 13.4 km/h 76% 0.0 mm 129 W/m2
20:51 11.7 °C 7.6 °C 1010.7 hPa WSW 6.1 km/h 12.2 km/h 76% 0.0 mm 150 W/m2
20:56 11.9 °C 7.8 °C 1010.7 hPa WSW 3.5 km/h 12.2 km/h 76% 0.0 mm 147 W/m2
21:01 12.1 °C 7.8 °C 1010.7 hPa WSW 5.0 km/h 9.7 km/h 75% 0.0 mm 130 W/m2
21:06 12.0 °C 7.3 °C 1011.1 hPa WSW 13.4 km/h 18.3 km/h 73% 0.0 mm 144 W/m2
21:11 12.0 °C 7.3 °C 1010.7 hPa SW 15.8 km/h 21.9 km/h 73% 0.0 mm 109 W/m2
21:16 11.9 °C 7.2 °C 1010.7 hPa SW 11.1 km/h 21.9 km/h 73% 0.0 mm 108 W/m2
21:21 11.9 °C 7.2 °C 1010.7 hPa SW 9.7 km/h 21.9 km/h 73% 0.0 mm 110 W/m2
21:26 11.8 °C 7.3 °C 1010.7 hPa SW 9.7 km/h 21.9 km/h 74% 0.0 mm 103 W/m2
21:31 11.5 °C 7.1 °C 1010.7 hPa WSW 11.1 km/h 21.9 km/h 74% 0.0 mm 92 W/m2
21:37 11.5 °C 7.2 °C 1010.7 hPa WSW 8.7 km/h 21.9 km/h 75% 0.0 mm 106 W/m2
21:42 11.6 °C 7.3 °C 1010.7 hPa WSW 12.2 km/h 15.8 km/h 75% 0.0 mm 110 W/m2
21:47 11.8 °C 7.3 °C 1010.7 hPa WSW 11.1 km/h 15.8 km/h 74% 0.0 mm 109 W/m2
21:52 11.8 °C 7.3 °C 1010.7 hPa WSW 3.5 km/h 15.8 km/h 74% 0.0 mm 111 W/m2
21:57 11.9 °C 7.2 °C 1010.7 hPa WSW 8.7 km/h 15.8 km/h 73% 0.0 mm 136 W/m2
22:02 12.3 °C 7.4 °C 1010.7 hPa WSW 7.2 km/h 15.8 km/h 72% 0.0 mm 180 W/m2
22:07 13.1 °C 7.6 °C 1010.7 hPa SW 8.7 km/h 15.8 km/h 69% 0.0 mm 149 W/m2
22:12 12.9 °C 7.3 °C 1011.1 hPa SW 14.8 km/h 19.5 km/h 69% 0.0 mm 144 W/m2
22:17 12.5 °C 6.8 °C 1010.7 hPa WSW 14.8 km/h 19.5 km/h 68% 0.0 mm 101 W/m2
22:22 12.4 °C 6.4 °C 1010.7 hPa SW 12.2 km/h 19.5 km/h 67% 0.0 mm 88 W/m2
22:27 12.2 °C 6.3 °C 1010.7 hPa SW 11.1 km/h 20.9 km/h 67% 0.0 mm 90 W/m2
22:32 12.2 °C 6.3 °C 1011.1 hPa SW 6.1 km/h 20.9 km/h 67% 0.0 mm 98 W/m2
22:37 12.2 °C 6.3 °C 1011.1 hPa SW 13.4 km/h 20.9 km/h 67% 0.0 mm 89 W/m2
22:42 12.2 °C 6.1 °C 1010.7 hPa SW 9.7 km/h 19.5 km/h 66% 0.0 mm 83 W/m2
22:47 12.2 °C 6.1 °C 1010.7 hPa SW 8.7 km/h 17.2 km/h 66% 0.0 mm 82 W/m2
22:52 12.2 °C 6.3 °C 1011.1 hPa SW 11.1 km/h 17.2 km/h 67% 0.0 mm 85 W/m2
22:57 12.2 °C 6.7 °C 1011.1 hPa SW 12.2 km/h 15.8 km/h 69% 0.0 mm 75 W/m2
23:02 12.2 °C 6.7 °C 1010.7 hPa SW 14.8 km/h 18.3 km/h 69% 0.0 mm 75 W/m2
23:07 12.2 °C 6.7 °C 1011.1 hPa WSW 9.7 km/h 18.3 km/h 69% 0.0 mm 80 W/m2
23:12 12.2 °C 6.9 °C 1011.1 hPa WSW 12.2 km/h 15.8 km/h 70% 0.0 mm 85 W/m2
23:17 12.2 °C 6.9 °C 1011.1 hPa SW 9.7 km/h 15.8 km/h 70% 0.0 mm 82 W/m2
23:22 12.2 °C 6.9 °C 1011.1 hPa WSW 6.1 km/h 15.8 km/h 70% 0.0 mm 58 W/m2
23:27 12.2 °C 6.9 °C 1011.1 hPa West 6.1 km/h 13.4 km/h 70% 0.0 mm 41 W/m2
23:43 12.1 °C 7.2 °C 1011.1 hPa SW 9.7 km/h 18.3 km/h 72% 0.0 mm 29 W/m2
23:48 12.1 °C 7.4 °C 1011.1 hPa SW 8.7 km/h 14.8 km/h 73% 0.0 mm 27 W/m2
23:53 12.0 °C 7.5 °C 1011.4 hPa SW 9.7 km/h 18.3 km/h 74% 0.0 mm 30 W/m2
23:58 12.0 °C 7.5 °C 1011.4 hPa SW 8.7 km/h 18.3 km/h 74% 0.0 mm 27 W/m2
Northern Hawkes Bay. New Zealand Historic Data
Compliments of Weather Underground - 2 mb